Hlavní strana
METAR-TAF:

METAR-TAF

Letiště :

Mezinárodní letiště Sunan

Pchjongjang, Severní Korea

zeměpisná šířka: 39-02N, zeměpisná délka: 125-47E, výška: 36 m

METAR: chybějící

Čas: 17:37 (08:37 UTC)

Předpověď počasí

Zpráva byla vytvořena před 4 hodinami a 37 minutami, v 04:00 UTC
Předpověď platná od 11 v 06 UTC do 12 v 06 UTC
Západoseverozápadní vítr 12 kt
Viditelnost: 4000 m
kouřmo

TAF: ZKPY 110400Z 1106/1206 30006MPS 4000 BR NSC TX05/1106Z TNM06/1122Z

Stav a předpovědi počasí z více než 4 000 letišť (zprávy METAR a TAF).

Červené a žluté tečky na mapě představují dostupné meteorologické stanice.

Když kurzor umístíte na tečku, zobrazí se název stanice.

Pak kliknutím zobrazíte stav a předpověď počasí.

Chcete-li změnit mapu, kliknutím na zelené tlačítko se znaménkem +mapu přiblížíte, kliknutím na zelené tlačítko se znaménkem – mapu oddálíte a kliknutím na zelené šipky přejdete na sousední mapy.


METAR-TAF: